Close

Questo sito utlizza cookie. Può leggere come li usiamo nella nostra Privacy Policy.

Ronchi Tower
Ronchi Tower

From Facebook

METAR & TAF

2020/05/27 14:50 LIPQ 271450Z AUTO 23009KT 9999 NCD 24/07 Q1026
2020/05/27 12:21 TAF LIPQ 271100Z 2712/2812 VRB05KT 9999 FEW040
2020/05/27 14:50 LIPZ 271450Z 19006KT CAVOK 23/07 Q1027 NOSIG
2020/05/27 12:21 TAF LIPZ 271100Z 2712/2818 16010KT 9999 FEW030 BECMG 2718/2720 VRB05KT BECMG 2809/2811 15010KT
2020/05/27 14:50 LIPH 271450Z VRB06KT CAVOK 25/07 Q1027
2020/05/27 12:25 TAF LIPH 271100Z 2712/2812 16006KT 9999 FEW020
2020/05/27 14:50 LIRF 271450Z 24012KT 210V270 CAVOK 23/08 Q1024 NOSIG
2020/05/27 12:23 TAF LIRF 271100Z 2712/2818 23010KT CAVOK BECMG 2716/2718 03008KT BECMG 2808/2810 24010KT
2020/05/27 14:50 LIML 271450Z VRB04KT CAVOK 24/06 Q1027 NOSIG
2020/05/27 12:21 TAF LIML 271100Z 2712/2812 13006KT CAVOK
2020/05/27 14:50 EDDM 271450Z VRB05KT CAVOK 19/04 Q1031 NOSIG
2020/05/27 12:27 TAF EDDM 271100Z 2712/2818 07006KT CAVOK BECMG 2717/2719 23004KT BECMG 2807/2809 36008KT PROB30 TEMPO 2809/2812 35013KT SHRA SCT012 BKN025TCU BECMG 2816/2818 03003KT
2020/05/27 14:50 EGSS 271450Z AUTO VRB03KT 9999 BKN045 22/11 Q1035
2020/05/27 12:09 TAF EGSS 271105Z 2712/2818 VRB04KT 9999 SCT045 BECMG 2714/2717 10010KT PROB40 2801/2807 8000 BKN005
2020/05/27 14:50 EDDF 271450Z VRB04KT CAVOK 24/04 Q1031 NOSIG
2020/05/27 12:27 TAF TAF EDDF 271100Z 2712/2818 02006KT 9999 FEW045 BECMG 2806/2808 02011KT BECMG 2816/2818 02006KT

FlightRadar24

Radar Meteo

Traffic data

Agosto 2018

Passeggeri: 63892-12,9% (rank: 23)
Nazionali 34490 -19,8%
Internazionali 29193 -3,0%

Movimenti: 1307+11,7% (rank: 24)
Tot commerciale 556 -7,2%
Aviazione generale 751 +31,5%

Cargo (tons): 20,6+62,5% (rank: 21)

Gennaio - Agosto 2018

Passeggeri: 507438-3,5% (rank: 23)
Nazionali 322655 -4,9%
Internazionali 182927 -0,7%

Movimenti: 10366-4,25 (rank: 22)
Tot commerciale 5328 -11,0%
Aviazione generale 5038 +4,2%

Cargo (tons): 299,2+61,9% (rank: 20)

Photo

Robinson R22 Beta II
Robinson R22 Beta II
Distinct views: 8
Robinson R22 Beta II
Robinson R22 Beta II
Distinct views: 22
Douglas DC-6B
Douglas DC-6B
Distinct views: 192
Activity
Activity
Total views: 1405